sensor_id;sensor_type;location;lat;lon;timestamp;pressure;altitude;pressure_sealevel;temperature;humidity
64876;BME280;51369;49.862;9.908;2023-02-04T00:01:38;99408.44;;;8.13;72.89
64876;BME280;51369;49.862;9.908;2023-02-04T00:04:03;99404.84;;;8.13;72.43
64876;BME280;51369;49.862;9.908;2023-02-04T00:06:29;99412.97;;;8.10;72.11
64876;BME280;51369;49.862;9.908;2023-02-04T00:08:54;99410.31;;;8.08;72.17
64876;BME280;51369;49.862;9.908;2023-02-04T00:11:19;99413.94;;;8.06;72.63
64876;BME280;51369;49.862;9.908;2023-02-04T00:13:45;99399.63;;;8.04;72.37
64876;BME280;51369;49.862;9.908;2023-02-04T00:16:10;99411.28;;;8.03;72.80
64876;BME280;51369;49.862;9.908;2023-02-04T00:18:36;99428.31;;;8.03;72.66
64876;BME280;51369;49.862;9.908;2023-02-04T00:21:01;99416.66;;;8.04;72.34
64876;BME280;51369;49.862;9.908;2023-02-04T00:23:26;99421.19;;;8.01;72.10
64876;BME280;51369;49.862;9.908;2023-02-04T00:25:52;99428.34;;;8.02;72.47
64876;BME280;51369;49.862;9.908;2023-02-04T00:28:17;99431.06;;;8.00;71.33
64876;BME280;51369;49.862;9.908;2023-02-04T00:30:43;99416.72;;;8.00;72.54
64876;BME280;51369;49.862;9.908;2023-02-04T00:33:09;99428.38;;;7.99;72.03
64876;BME280;51369;49.862;9.908;2023-02-04T00:35:34;99440.91;;;8.01;72.71
64876;BME280;51369;49.862;9.908;2023-02-04T00:38:02;99439.09;;;8.02;72.15
64876;BME280;51369;49.862;9.908;2023-02-04T00:40:27;99429.22;;;8.02;71.88
64876;BME280;51369;49.862;9.908;2023-02-04T00:42:53;99413.13;;;7.99;71.39
64876;BME280;51369;49.862;9.908;2023-02-04T00:45:18;99412.28;;;7.97;72.70
64876;BME280;51369;49.862;9.908;2023-02-04T00:47:44;99412.31;;;7.96;72.82
64876;BME280;51369;49.862;9.908;2023-02-04T00:50:09;99405.16;;;7.95;72.82
64876;BME280;51369;49.862;9.908;2023-02-04T00:52:35;99415.94;;;7.92;72.32
64876;BME280;51369;49.862;9.908;2023-02-04T00:55:01;99424.94;;;7.91;71.55
64876;BME280;51369;49.862;9.908;2023-02-04T00:57:26;99433.06;;;7.86;70.84
64876;BME280;51369;49.862;9.908;2023-02-04T00:59:52;99439.38;;;7.83;71.13
64876;BME280;51369;49.862;9.908;2023-02-04T01:02:17;99444.78;;;7.80;71.31
64876;BME280;51369;49.862;9.908;2023-02-04T01:04:42;99455.56;;;7.79;72.22
64876;BME280;51369;49.862;9.908;2023-02-04T01:07:08;99456.47;;;7.78;72.14
64876;BME280;51369;49.862;9.908;2023-02-04T01:09:33;99459.19;;;7.76;72.09
64876;BME280;51369;49.862;9.908;2023-02-04T01:11:58;99478.00;;;7.76;71.01
64876;BME280;51369;49.862;9.908;2023-02-04T01:14:24;99482.47;;;7.77;71.91
64876;BME280;51369;49.862;9.908;2023-02-04T01:16:49;99486.94;;;7.78;72.64
64876;BME280;51369;49.862;9.908;2023-02-04T01:19:15;99496.81;;;7.78;72.55
64876;BME280;51369;49.862;9.908;2023-02-04T01:21:40;99490.53;;;7.79;72.16
64876;BME280;51369;49.862;9.908;2023-02-04T01:24:05;99493.22;;;7.77;71.07
64876;BME280;51369;49.862;9.908;2023-02-04T01:26:51;99495.00;;;7.80;71.60
64876;BME280;51369;49.862;9.908;2023-02-04T01:29:16;99501.25;;;7.80;71.77
64876;BME280;51369;49.862;9.908;2023-02-04T01:31:42;99496.78;;;7.79;71.62
64876;BME280;51369;49.862;9.908;2023-02-04T01:34:07;99508.47;;;7.77;70.94
64876;BME280;51369;49.862;9.908;2023-02-04T01:36:33;99519.31;;;7.71;71.54
64876;BME280;51369;49.862;9.908;2023-02-04T01:38:58;99528.31;;;7.68;71.89
64876;BME280;51369;49.862;9.908;2023-02-04T01:41:25;99528.34;;;7.64;71.77
64876;BME280;51369;49.862;9.908;2023-02-04T01:43:51;99528.41;;;7.59;71.68
64876;BME280;51369;49.862;9.908;2023-02-04T01:46:16;99532.06;;;7.55;72.63
64876;BME280;51369;49.862;9.908;2023-02-04T01:48:42;99547.31;;;7.53;72.34
64876;BME280;51369;49.862;9.908;2023-02-04T01:51:10;99545.53;;;7.50;72.24
64876;BME280;51369;49.862;9.908;2023-02-04T01:53:37;99546.44;;;7.49;73.17
64876;BME280;51369;49.862;9.908;2023-02-04T01:56:21;99548.25;;;7.47;72.45
64876;BME280;51369;49.862;9.908;2023-02-04T01:58:47;99549.16;;;7.48;72.08
64876;BME280;51369;49.862;9.908;2023-02-04T02:01:15;99547.38;;;7.47;72.22
64876;BME280;51369;49.862;9.908;2023-02-04T02:03:41;99545.56;;;7.49;72.60
64876;BME280;51369;49.862;9.908;2023-02-04T02:06:08;99542.84;;;7.50;72.09
64876;BME280;51369;49.862;9.908;2023-02-04T02:08:35;99539.25;;;7.51;72.75
64876;BME280;51369;49.862;9.908;2023-02-04T02:11:02;99531.22;;;7.50;72.11
64876;BME280;51369;49.862;9.908;2023-02-04T02:13:27;99526.72;;;7.50;72.01
64876;BME280;51369;49.862;9.908;2023-02-04T02:15:53;99533.00;;;7.51;72.39
64876;BME280;51369;49.862;9.908;2023-02-04T02:18:18;99532.97;;;7.53;72.63
64876;BME280;51369;49.862;9.908;2023-02-04T02:20:44;99534.75;;;7.55;72.39
64876;BME280;51369;49.862;9.908;2023-02-04T02:23:48;99538.34;;;7.54;71.90
64876;BME280;51369;49.862;9.908;2023-02-04T02:26:15;99540.97;;;7.57;72.77
64876;BME280;51369;49.862;9.908;2023-02-04T02:28:42;99546.31;;;7.60;72.70
64876;BME280;51369;49.862;9.908;2023-02-04T02:31:07;99554.38;;;7.60;72.74
64876;BME280;51369;49.862;9.908;2023-02-04T02:33:35;99543.63;;;7.60;72.17
64876;BME280;51369;49.862;9.908;2023-02-04T02:36:00;99550.78;;;7.61;72.02
64876;BME280;51369;49.862;9.908;2023-02-04T02:38:26;99556.16;;;7.61;72.10
64876;BME280;51369;49.862;9.908;2023-02-04T02:40:52;99563.34;;;7.61;72.83
64876;BME280;51369;49.862;9.908;2023-02-04T02:43:22;99561.53;;;7.61;73.07
64876;BME280;51369;49.862;9.908;2023-02-04T02:45:49;99567.81;;;7.62;72.37
64876;BME280;51369;49.862;9.908;2023-02-04T02:48:15;99569.56;;;7.64;72.86
64876;BME280;51369;49.862;9.908;2023-02-04T02:50:41;99559.72;;;7.63;72.55
64876;BME280;51369;49.862;9.908;2023-02-04T02:53:17;99572.28;;;7.63;72.48
64876;BME280;51369;49.862;9.908;2023-02-04T02:55:45;99583.00;;;7.66;73.03
64876;BME280;51369;49.862;9.908;2023-02-04T02:58:24;99569.59;;;7.61;72.55
64876;BME280;51369;49.862;9.908;2023-02-04T03:00:50;99577.63;;;7.64;72.01
64876;BME280;51369;49.862;9.908;2023-02-04T03:03:24;99577.63;;;7.64;72.23
64876;BME280;51369;49.862;9.908;2023-02-04T03:05:56;99579.41;;;7.65;72.65
64876;BME280;51369;49.862;9.908;2023-02-04T03:08:24;99575.84;;;7.65;72.60
64876;BME280;51369;49.862;9.908;2023-02-04T03:10:50;99576.72;;;7.65;72.32
64876;BME280;51369;49.862;9.908;2023-02-04T03:13:16;99566.88;;;7.64;71.66
64876;BME280;51369;49.862;9.908;2023-02-04T03:15:43;99573.19;;;7.60;72.75
64876;BME280;51369;49.862;9.908;2023-02-04T03:18:12;99579.53;;;7.56;71.47
64876;BME280;51369;49.862;9.908;2023-02-04T03:20:39;99583.16;;;7.52;72.34
64876;BME280;51369;49.862;9.908;2023-02-04T03:23:05;99584.06;;;7.49;72.18
64876;BME280;51369;49.862;9.908;2023-02-04T03:25:31;99588.56;;;7.47;72.21
64876;BME280;51369;49.862;9.908;2023-02-04T03:27:57;99593.97;;;7.44;71.53
64876;BME280;51369;49.862;9.908;2023-02-04T03:30:23;99593.09;;;7.44;71.91
64876;BME280;51369;49.862;9.908;2023-02-04T03:32:50;99596.69;;;7.41;71.58
64876;BME280;51369;49.862;9.908;2023-02-04T03:35:16;99603.00;;;7.39;71.37
64876;BME280;51369;49.862;9.908;2023-02-04T03:37:41;99614.66;;;7.38;71.98
64876;BME280;51369;49.862;9.908;2023-02-04T03:40:07;99616.44;;;7.37;72.18
64876;BME280;51369;49.862;9.908;2023-02-04T03:42:33;99614.66;;;7.36;71.64
64876;BME280;51369;49.862;9.908;2023-02-04T03:44:59;99622.72;;;7.36;72.02
64876;BME280;51369;49.862;9.908;2023-02-04T03:47:24;99633.47;;;7.36;71.63
64876;BME280;51369;49.862;9.908;2023-02-04T03:49:50;99638.84;;;7.38;71.78
64876;BME280;51369;49.862;9.908;2023-02-04T03:52:15;99637.06;;;7.37;70.46
64876;BME280;51369;49.862;9.908;2023-02-04T03:54:40;99647.78;;;7.38;70.83
64876;BME280;51369;49.862;9.908;2023-02-04T03:57:06;99646.88;;;7.39;70.65
64876;BME280;51369;49.862;9.908;2023-02-04T03:59:31;99651.34;;;7.39;71.31
64876;BME280;51369;49.862;9.908;2023-02-04T04:01:57;99659.44;;;7.37;71.02
64876;BME280;51369;49.862;9.908;2023-02-04T04:04:22;99653.19;;;7.34;71.36
64876;BME280;51369;49.862;9.908;2023-02-04T04:06:48;99668.44;;;7.32;71.11
64876;BME280;51369;49.862;9.908;2023-02-04T04:09:13;99665.78;;;7.30;70.96
64876;BME280;51369;49.862;9.908;2023-02-04T04:11:38;99676.50;;;7.30;70.81
64876;BME280;51369;49.862;9.908;2023-02-04T04:14:04;99681.91;;;7.29;70.39
64876;BME280;51369;49.862;9.908;2023-02-04T04:16:29;99689.97;;;7.27;70.65
64876;BME280;51369;49.862;9.908;2023-02-04T04:18:55;99697.13;;;7.30;70.37
64876;BME280;51369;49.862;9.908;2023-02-04T04:21:21;99697.13;;;7.30;70.19
64876;BME280;51369;49.862;9.908;2023-02-04T04:23:46;99696.22;;;7.29;69.98
64876;BME280;51369;49.862;9.908;2023-02-04T04:26:12;99703.38;;;7.32;70.95
64876;BME280;51369;49.862;9.908;2023-02-04T04:28:37;99706.97;;;7.31;70.58
64876;BME280;51369;49.862;9.908;2023-02-04T04:31:03;99708.75;;;7.32;70.13
64876;BME280;51369;49.862;9.908;2023-02-04T04:33:28;99708.78;;;7.29;70.19
64876;BME280;51369;49.862;9.908;2023-02-04T04:35:54;99719.53;;;7.26;70.23
64876;BME280;51369;49.862;9.908;2023-02-04T04:38:19;99713.31;;;7.21;69.82
64876;BME280;51369;49.862;9.908;2023-02-04T04:40:44;99714.22;;;7.16;69.94
64876;BME280;51369;49.862;9.908;2023-02-04T04:43:10;99716.06;;;7.11;70.06
64876;BME280;51369;49.862;9.908;2023-02-04T04:45:36;99726.84;;;7.07;70.35
64876;BME280;51369;49.862;9.908;2023-02-04T04:48:01;99728.69;;;7.00;69.81
64876;BME280;51369;49.862;9.908;2023-02-04T04:50:27;99724.28;;;6.93;69.80
64876;BME280;51369;49.862;9.908;2023-02-04T04:52:52;99727.00;;;6.87;69.98
64876;BME280;51369;49.862;9.908;2023-02-04T04:55:17;99723.47;;;6.82;69.54
64876;BME280;51369;49.862;9.908;2023-02-04T04:57:43;99726.19;;;6.76;69.78
64876;BME280;51369;49.862;9.908;2023-02-04T05:00:13;99721.75;;;6.69;69.88
64876;BME280;51369;49.862;9.908;2023-02-04T05:02:39;99723.56;;;6.64;69.97
64876;BME280;51369;49.862;9.908;2023-02-04T05:05:05;99725.38;;;6.59;70.00
64876;BME280;51369;49.862;9.908;2023-02-04T05:07:30;99720.94;;;6.53;70.02
64876;BME280;51369;49.862;9.908;2023-02-04T05:09:55;99726.31;;;6.50;70.79
64876;BME280;51369;49.862;9.908;2023-02-04T05:12:21;99721.88;;;6.44;70.63
64876;BME280;51369;49.862;9.908;2023-02-04T05:14:46;99726.38;;;6.39;70.54
64876;BME280;51369;49.862;9.908;2023-02-04T05:17:12;99726.38;;;6.36;70.61
64876;BME280;51369;49.862;9.908;2023-02-04T05:19:37;99727.28;;;6.34;70.65
64876;BME280;51369;49.862;9.908;2023-02-04T05:22:03;99730.88;;;6.33;70.99
64876;BME280;51369;49.862;9.908;2023-02-04T05:24:28;99730.00;;;6.29;71.39
64876;BME280;51369;49.862;9.908;2023-02-04T05:26:54;99728.19;;;6.28;70.82
64876;BME280;51369;49.862;9.908;2023-02-04T05:29:19;99742.50;;;6.27;70.69
64876;BME280;51369;49.862;9.908;2023-02-04T05:31:44;99744.31;;;6.25;71.39
64876;BME280;51369;49.862;9.908;2023-02-04T05:34:10;99759.50;;;6.25;70.93
64876;BME280;51369;49.862;9.908;2023-02-04T05:36:35;99767.56;;;6.23;71.04
64876;BME280;51369;49.862;9.908;2023-02-04T05:39:00;99774.72;;;6.24;71.08
64876;BME280;51369;49.862;9.908;2023-02-04T05:41:26;99779.19;;;6.25;70.73
64876;BME280;51369;49.862;9.908;2023-02-04T05:43:51;99780.06;;;6.27;70.77
64876;BME280;51369;49.862;9.908;2023-02-04T05:46:16;99777.38;;;6.24;71.24
64876;BME280;51369;49.862;9.908;2023-02-04T05:48:42;99769.34;;;6.23;71.09
64876;BME280;51369;49.862;9.908;2023-02-04T05:51:07;99772.03;;;6.18;71.49
64876;BME280;51369;49.862;9.908;2023-02-04T05:53:32;99776.53;;;6.16;71.26
64876;BME280;51369;49.862;9.908;2023-02-04T05:55:58;99782.78;;;6.15;71.40
64876;BME280;51369;49.862;9.908;2023-02-04T05:58:24;99789.94;;;6.14;72.04
64876;BME280;51369;49.862;9.908;2023-02-04T06:00:49;99796.19;;;6.16;71.87
64876;BME280;51369;49.862;9.908;2023-02-04T06:03:15;99791.72;;;6.18;71.33
64876;BME280;51369;49.862;9.908;2023-02-04T06:05:40;99805.09;;;6.22;71.55
64876;BME280;51369;49.862;9.908;2023-02-04T06:08:06;99816.72;;;6.25;71.98
64876;BME280;51369;49.862;9.908;2023-02-04T06:10:31;99806.88;;;6.27;71.86
64876;BME280;51369;49.862;9.908;2023-02-04T06:12:57;99822.97;;;6.29;71.76
64876;BME280;51369;49.862;9.908;2023-02-04T06:15:23;99816.72;;;6.31;71.73
64876;BME280;51369;49.862;9.908;2023-02-04T06:17:48;99822.06;;;6.34;71.23
64876;BME280;51369;49.862;9.908;2023-02-04T06:20:13;99815.81;;;6.35;71.35
64876;BME280;51369;49.862;9.908;2023-02-04T06:22:39;99813.13;;;6.37;71.25
64876;BME280;51369;49.862;9.908;2023-02-04T06:25:05;99819.38;;;6.37;71.85
64876;BME280;51369;49.862;9.908;2023-02-04T06:27:30;99826.53;;;6.35;71.58
64876;BME280;51369;49.862;9.908;2023-02-04T06:29:55;99830.13;;;6.34;71.48
64876;BME280;51369;49.862;9.908;2023-02-04T06:32:22;99837.28;;;6.32;71.49
64876;BME280;51369;49.862;9.908;2023-02-04T06:34:48;99831.91;;;6.31;71.79
64876;BME280;51369;49.862;9.908;2023-02-04T06:37:13;99850.69;;;6.32;71.33
64876;BME280;51369;49.862;9.908;2023-02-04T06:39:42;99848.91;;;6.31;71.47
64876;BME280;51369;49.862;9.908;2023-02-04T06:42:08;99844.41;;;6.33;71.78
64876;BME280;51369;49.862;9.908;2023-02-04T06:44:33;99850.69;;;6.32;71.49
64876;BME280;51369;49.862;9.908;2023-02-04T06:46:58;99856.03;;;6.34;71.56
64876;BME280;51369;49.862;9.908;2023-02-04T06:49:24;99863.19;;;6.33;71.57
64876;BME280;51369;49.862;9.908;2023-02-04T06:51:50;99879.28;;;6.33;71.35
64876;BME280;51369;49.862;9.908;2023-02-04T06:54:16;99870.34;;;6.34;71.97
64876;BME280;51369;49.862;9.908;2023-02-04T06:56:41;99874.81;;;6.37;71.88
64876;BME280;51369;49.862;9.908;2023-02-04T06:59:08;99865.88;;;6.38;71.67
64876;BME280;51369;49.862;9.908;2023-02-04T07:01:34;99873.91;;;6.38;71.70
64876;BME280;51369;49.862;9.908;2023-02-04T07:03:59;99882.84;;;6.40;71.64
64876;BME280;51369;49.862;9.908;2023-02-04T07:06:24;99884.66;;;6.39;72.17
64876;BME280;51369;49.862;9.908;2023-02-04T07:08:50;99897.16;;;6.42;71.80
64876;BME280;51369;49.862;9.908;2023-02-04T07:11:15;99894.47;;;6.42;71.73
64876;BME280;51369;49.862;9.908;2023-02-04T07:13:41;99900.75;;;6.44;71.58
64876;BME280;51369;49.862;9.908;2023-02-04T07:16:06;99899.84;;;6.45;71.97
64876;BME280;51369;49.862;9.908;2023-02-04T07:18:32;99902.53;;;6.46;72.14
64876;BME280;51369;49.862;9.908;2023-02-04T07:20:57;99912.34;;;6.47;71.61
64876;BME280;51369;49.862;9.908;2023-02-04T07:23:23;99922.19;;;6.51;72.18
64876;BME280;51369;49.862;9.908;2023-02-04T07:25:50;99927.56;;;6.53;72.33
64876;BME280;51369;49.862;9.908;2023-02-04T07:28:18;99928.44;;;6.55;72.31
64876;BME280;51369;49.862;9.908;2023-02-04T07:30:44;99933.81;;;6.58;72.31
64876;BME280;51369;49.862;9.908;2023-02-04T07:33:10;99941.84;;;6.63;72.11
64876;BME280;51369;49.862;9.908;2023-02-04T07:35:35;99942.75;;;6.66;72.42
64876;BME280;51369;49.862;9.908;2023-02-04T07:38:02;99950.78;;;6.71;72.21
64876;BME280;51369;49.862;9.908;2023-02-04T07:40:28;99943.63;;;6.76;72.23
64876;BME280;51369;49.862;9.908;2023-02-04T07:42:53;99947.19;;;6.78;72.17
64876;BME280;51369;49.862;9.908;2023-02-04T07:45:20;99951.66;;;6.82;72.34
64876;BME280;51369;49.862;9.908;2023-02-04T07:47:46;99948.97;;;6.85;71.99
64876;BME280;51369;49.862;9.908;2023-02-04T07:50:11;99945.38;;;6.89;72.16
64876;BME280;51369;49.862;9.908;2023-02-04T07:52:37;99960.56;;;6.93;71.60
64876;BME280;51369;49.862;9.908;2023-02-04T07:55:03;99961.44;;;6.95;71.65
64876;BME280;51369;49.862;9.908;2023-02-04T07:57:29;99969.47;;;7.00;71.61
64876;BME280;51369;49.862;9.908;2023-02-04T07:59:55;99969.47;;;7.01;71.67
64876;BME280;51369;49.862;9.908;2023-02-04T08:02:20;99973.94;;;7.04;71.66
64876;BME280;51369;49.862;9.908;2023-02-04T08:04:45;99983.78;;;7.03;70.76
64876;BME280;51369;49.862;9.908;2023-02-04T08:07:11;99987.38;;;7.04;71.06
64876;BME280;51369;49.862;9.908;2023-02-04T08:09:37;99984.69;;;7.04;71.28
64876;BME280;51369;49.862;9.908;2023-02-04T08:12:02;99989.16;;;7.02;70.74
64876;BME280;51369;49.862;9.908;2023-02-04T08:14:28;99998.13;;;7.01;70.62
64876;BME280;51369;49.862;9.908;2023-02-04T08:16:53;100003.50;;;6.99;70.93
64876;BME280;51369;49.862;9.908;2023-02-04T08:19:18;100006.19;;;6.96;70.97
64876;BME280;51369;49.862;9.908;2023-02-04T08:21:46;100027.66;;;6.95;71.25
64876;BME280;51369;49.862;9.908;2023-02-04T08:24:13;100023.22;;;6.92;71.36
64876;BME280;51369;49.862;9.908;2023-02-04T08:26:39;100028.59;;;6.91;71.60
64876;BME280;51369;49.862;9.908;2023-02-04T08:29:05;100024.13;;;6.91;71.78
64876;BME280;51369;49.862;9.908;2023-02-04T08:31:31;100031.28;;;6.92;71.74
64876;BME280;51369;49.862;9.908;2023-02-04T08:33:56;100034.81;;;6.94;71.91
64876;BME280;51369;49.862;9.908;2023-02-04T08:36:22;100038.41;;;6.96;71.81
64876;BME280;51369;49.862;9.908;2023-02-04T08:38:47;100035.72;;;6.98;71.46
64876;BME280;51369;49.862;9.908;2023-02-04T08:41:12;100037.50;;;6.99;71.54
64876;BME280;51369;49.862;9.908;2023-02-04T08:43:38;100044.66;;;7.01;71.54
64876;BME280;51369;49.862;9.908;2023-02-04T08:46:03;100050.03;;;7.06;71.48
64876;BME280;51369;49.862;9.908;2023-02-04T08:48:29;100044.66;;;7.09;71.51
64876;BME280;51369;49.862;9.908;2023-02-04T08:50:54;100052.69;;;7.10;71.22
64876;BME280;51369;49.862;9.908;2023-02-04T08:53:19;100064.34;;;7.09;70.95
64876;BME280;51369;49.862;9.908;2023-02-04T08:55:45;100059.84;;;7.14;71.19
64876;BME280;51369;49.862;9.908;2023-02-04T08:58:10;100061.66;;;7.15;72.03
64876;BME280;51369;49.862;9.908;2023-02-04T09:00:36;100067.91;;;7.19;72.11
64876;BME280;51369;49.862;9.908;2023-02-04T09:03:01;100081.31;;;7.24;71.57
64876;BME280;51369;49.862;9.908;2023-02-04T09:05:27;100084.00;;;7.28;71.59
64876;BME280;51369;49.862;9.908;2023-02-04T09:07:52;100096.53;;;7.31;70.98
64876;BME280;51369;49.862;9.908;2023-02-04T09:10:17;100098.31;;;7.33;70.49
64876;BME280;51369;49.862;9.908;2023-02-04T09:12:43;100109.06;;;7.36;70.05
64876;BME280;51369;49.862;9.908;2023-02-04T09:15:09;100112.66;;;7.35;69.50
64876;BME280;51369;49.862;9.908;2023-02-04T09:17:35;100110.88;;;7.34;69.34
64876;BME280;51369;49.862;9.908;2023-02-04T09:20:02;100120.72;;;7.31;68.54
64876;BME280;51369;49.862;9.908;2023-02-04T09:22:27;100124.31;;;7.28;68.35
64876;BME280;51369;49.862;9.908;2023-02-04T09:24:53;100127.00;;;7.24;68.63
64876;BME280;51369;49.862;9.908;2023-02-04T09:27:18;100126.09;;;7.20;68.42
64876;BME280;51369;49.862;9.908;2023-02-04T09:29:44;100129.69;;;7.17;68.85
64876;BME280;51369;49.862;9.908;2023-02-04T09:32:09;100128.81;;;7.15;68.02
64876;BME280;51369;49.862;9.908;2023-02-04T09:34:34;100128.81;;;7.17;68.38
64876;BME280;51369;49.862;9.908;2023-02-04T09:37:00;100131.50;;;7.17;68.43
64876;BME280;51369;49.862;9.908;2023-02-04T09:39:25;100132.38;;;7.16;68.03
64876;BME280;51369;49.862;9.908;2023-02-04T09:41:51;100141.34;;;7.19;68.39
64876;BME280;51369;49.862;9.908;2023-02-04T09:44:20;100144.00;;;7.23;67.95
64876;BME280;51369;49.862;9.908;2023-02-04T09:46:51;100147.59;;;7.28;67.51
64876;BME280;51369;49.862;9.908;2023-02-04T09:49:18;100144.00;;;7.33;67.65
64876;BME280;51369;49.862;9.908;2023-02-04T09:51:45;100159.22;;;7.39;67.18
64876;BME280;51369;49.862;9.908;2023-02-04T09:54:15;100155.63;;;7.44;66.84
64876;BME280;51369;49.862;9.908;2023-02-04T09:56:41;100158.31;;;7.50;67.09
64876;BME280;51369;49.862;9.908;2023-02-04T10:01:36;100143.03;;;7.65;66.67
64876;BME280;51369;49.862;9.908;2023-02-04T10:04:03;100148.41;;;7.72;66.76
64876;BME280;51369;49.862;9.908;2023-02-04T10:06:28;100148.38;;;7.77;67.13
64876;BME280;51369;49.862;9.908;2023-02-04T10:08:54;100144.78;;;7.81;67.04
64876;BME280;51369;49.862;9.908;2023-02-04T10:11:21;100139.41;;;7.84;67.15
64876;BME280;51369;49.862;9.908;2023-02-04T10:13:49;100144.75;;;7.87;66.51
64876;BME280;51369;49.862;9.908;2023-02-04T10:16:24;100151.03;;;7.88;66.45
64876;BME280;51369;49.862;9.908;2023-02-04T10:18:59;100151.94;;;7.85;66.61
64876;BME280;51369;49.862;9.908;2023-02-04T10:21:30;100157.34;;;7.82;65.71
64876;BME280;51369;49.862;9.908;2023-02-04T10:23:57;100151.97;;;7.79;65.92
64876;BME280;51369;49.862;9.908;2023-02-04T10:26:26;100158.25;;;7.79;65.66
64876;BME280;51369;49.862;9.908;2023-02-04T10:29:04;100160.03;;;7.77;65.77
64876;BME280;51369;49.862;9.908;2023-02-04T10:31:38;100161.81;;;7.78;65.31
64876;BME280;51369;49.862;9.908;2023-02-04T10:34:17;100165.41;;;7.79;65.88
64876;BME280;51369;49.862;9.908;2023-02-04T10:36:46;100169.00;;;7.79;65.64
64876;BME280;51369;49.862;9.908;2023-02-04T10:39:19;100169.00;;;7.79;65.09
64876;BME280;51369;49.862;9.908;2023-02-04T10:41:50;100172.56;;;7.81;65.24
64876;BME280;51369;49.862;9.908;2023-02-04T10:44:19;100177.03;;;7.86;64.58
64876;BME280;51369;49.862;9.908;2023-02-04T10:46:45;100170.75;;;7.87;64.39
64876;BME280;51369;49.862;9.908;2023-02-04T10:49:22;100174.34;;;7.86;63.68
64876;BME280;51369;49.862;9.908;2023-02-04T10:51:49;100174.34;;;7.87;63.92
64876;BME280;51369;49.862;9.908;2023-02-04T10:54:16;100176.16;;;7.85;63.21
64876;BME280;51369;49.862;9.908;2023-02-04T10:56:54;100179.75;;;7.82;63.79
64876;BME280;51369;49.862;9.908;2023-02-04T10:59:23;100187.81;;;7.79;63.52
64876;BME280;51369;49.862;9.908;2023-02-04T11:01:57;100189.63;;;7.76;63.49
64876;BME280;51369;49.862;9.908;2023-02-04T11:04:25;100182.44;;;7.75;63.68
64876;BME280;51369;49.862;9.908;2023-02-04T11:06:51;100189.63;;;7.76;63.58
64876;BME280;51369;49.862;9.908;2023-02-04T11:09:17;100196.78;;;7.74;63.34
64876;BME280;51369;49.862;9.908;2023-02-04T11:11:47;100200.38;;;7.71;63.47
64876;BME280;51369;49.862;9.908;2023-02-04T11:14:25;100193.22;;;7.67;62.86
64876;BME280;51369;49.862;9.908;2023-02-04T11:16:53;100202.19;;;7.66;63.82
64876;BME280;51369;49.862;9.908;2023-02-04T11:19:38;100196.81;;;7.66;63.49
64876;BME280;51369;49.862;9.908;2023-02-04T11:23:14;100201.28;;;7.67;63.45
64876;BME280;51369;49.862;9.908;2023-02-04T11:25:31;100205.78;;;7.67;64.02
64876;BME280;51369;49.862;9.908;2023-02-04T11:27:58;100200.41;;;7.68;63.67
64876;BME280;51369;49.862;9.908;2023-02-04T11:30:30;100197.69;;;7.67;63.63
64876;BME280;51369;49.862;9.908;2023-02-04T11:33:02;100202.19;;;7.68;63.28
64876;BME280;51369;49.862;9.908;2023-02-04T11:35:28;100196.78;;;7.72;64.01
64876;BME280;51369;49.862;9.908;2023-02-04T11:37:55;100201.28;;;7.75;62.62
64876;BME280;51369;49.862;9.908;2023-02-04T11:40:25;100204.84;;;7.77;63.09
64876;BME280;51369;49.862;9.908;2023-02-04T11:42:58;100204.84;;;7.77;62.62
64876;BME280;51369;49.862;9.908;2023-02-04T11:45:34;100206.66;;;7.78;62.58
64876;BME280;51369;49.862;9.908;2023-02-04T11:48:03;100207.53;;;7.81;63.01
64876;BME280;51369;49.862;9.908;2023-02-04T11:50:35;100204.84;;;7.84;63.18
64876;BME280;51369;49.862;9.908;2023-02-04T11:53:03;100203.03;;;7.87;63.26
64876;BME280;51369;49.862;9.908;2023-02-04T11:55:30;100207.50;;;7.88;63.19
64876;BME280;51369;49.862;9.908;2023-02-04T11:57:59;100205.72;;;7.88;63.09
64876;BME280;51369;49.862;9.908;2023-02-04T12:00:33;100206.63;;;7.89;62.93
64876;BME280;51369;49.862;9.908;2023-02-04T12:03:03;100210.19;;;7.92;62.88
64876;BME280;51369;49.862;9.908;2023-02-04T12:05:39;100208.38;;;7.96;63.62
64876;BME280;51369;49.862;9.908;2023-02-04T12:08:11;100211.06;;;7.97;63.52
64876;BME280;51369;49.862;9.908;2023-02-04T12:10:36;100211.97;;;8.04;63.79
64876;BME280;51369;49.862;9.908;2023-02-04T12:13:12;100210.16;;;8.06;63.99
64876;BME280;51369;49.862;9.908;2023-02-04T12:15:40;100216.44;;;8.05;63.75
64876;BME280;51369;49.862;9.908;2023-02-04T12:18:09;100219.13;;;8.02;62.68
64876;BME280;51369;49.862;9.908;2023-02-04T12:20:40;100213.75;;;7.99;63.36
64876;BME280;51369;49.862;9.908;2023-02-04T12:23:05;100222.75;;;7.95;63.04
64876;BME280;51369;49.862;9.908;2023-02-04T12:25:32;100225.44;;;7.89;62.31
64876;BME280;51369;49.862;9.908;2023-02-04T12:27:58;100226.34;;;7.84;63.68
64876;BME280;51369;49.862;9.908;2023-02-04T12:30:24;100225.47;;;7.82;63.12
64876;BME280;51369;49.862;9.908;2023-02-04T12:32:50;100222.78;;;7.81;62.73
64876;BME280;51369;49.862;9.908;2023-02-04T12:35:16;100227.25;;;7.80;62.73
64876;BME280;51369;49.862;9.908;2023-02-04T12:37:42;100231.75;;;7.78;62.65
64876;BME280;51369;49.862;9.908;2023-02-04T12:40:19;100230.84;;;7.79;62.47
64876;BME280;51369;49.862;9.908;2023-02-04T12:42:45;100230.84;;;7.86;62.27
64876;BME280;51369;49.862;9.908;2023-02-04T12:45:13;100220.94;;;7.95;62.52
64876;BME280;51369;49.862;9.908;2023-02-04T12:47:39;100212.84;;;8.04;62.02
64876;BME280;51369;49.862;9.908;2023-02-04T12:50:05;100208.34;;;8.14;62.05
64876;BME280;51369;49.862;9.908;2023-02-04T12:52:31;100209.22;;;8.21;61.41
64876;BME280;51369;49.862;9.908;2023-02-04T12:54:57;100207.41;;;8.24;61.37
64876;BME280;51369;49.862;9.908;2023-02-04T12:57:24;100218.16;;;8.23;60.28
64876;BME280;51369;49.862;9.908;2023-02-04T12:59:49;100216.38;;;8.25;60.24
64876;BME280;51369;49.862;9.908;2023-02-04T13:02:15;100202.91;;;8.28;59.98
64876;BME280;51369;49.862;9.908;2023-02-04T13:04:40;100210.97;;;8.37;61.65
64876;BME280;51369;49.862;9.908;2023-02-04T13:07:07;100198.38;;;8.42;60.49
64876;BME280;51369;49.862;9.908;2023-02-04T13:09:33;100199.25;;;8.47;60.84